createdAt,value
2022-11-29T00:01:09.634Z,100120.91
2022-11-29T00:08:50.594Z,100131.50
2022-11-29T00:21:53.591Z,100152.41
2022-11-29T00:30:31.901Z,100169.63
2022-11-29T00:33:54.636Z,100187.94
2022-11-29T00:36:47.856Z,100210.84
2022-11-29T00:39:23.665Z,100220.06
2022-11-29T00:42:00.194Z,100236.53
2022-11-29T00:44:42.528Z,100245.88
2022-11-29T00:47:16.269Z,100236.72
2022-11-29T00:49:54.985Z,100237.81
2022-11-29T00:52:34.981Z,100236.13
2022-11-29T00:55:07.783Z,100246.72
2022-11-29T00:57:43.385Z,100237.38
2022-11-29T01:00:18.717Z,100238.41
2022-11-29T01:02:50.079Z,100241.28
2022-11-29T01:05:22.578Z,100241.16
2022-11-29T01:07:55.378Z,100247.66
2022-11-29T01:10:48.123Z,100239.38
2022-11-29T01:13:20.818Z,100253.63
2022-11-29T01:16:01.641Z,100238.66
2022-11-29T01:18:31.171Z,100241.13
2022-11-29T01:21:12.281Z,100249.56
2022-11-29T01:23:43.383Z,100264.81
2022-11-29T01:26:19.621Z,100264.00
2022-11-29T01:28:55.283Z,100271.72
2022-11-29T01:31:38.099Z,100286.03
2022-11-29T01:34:09.761Z,100297.09
2022-11-29T01:36:41.444Z,100296.19
2022-11-29T01:39:11.352Z,100300.91
2022-11-29T01:41:44.017Z,100307.88
2022-11-29T01:44:15.237Z,100318.09
2022-11-29T01:46:54.458Z,100320.38
2022-11-29T01:49:31.684Z,100331.19
2022-11-29T01:52:12.345Z,100335.94
2022-11-29T01:54:52.097Z,100333.25
2022-11-29T01:57:23.662Z,100337.31
2022-11-29T02:00:05.661Z,100340.09
2022-11-29T02:02:47.146Z,100328.41
2022-11-29T02:05:22.572Z,100332.94
2022-11-29T02:08:00.050Z,100343.66
2022-11-29T02:10:59.147Z,100351.78
2022-11-29T02:14:07.511Z,100355.00
2022-11-29T02:16:58.708Z,100351.13
2022-11-29T02:19:49.268Z,100348.06
2022-11-29T02:22:44.429Z,100347.38
2022-11-29T02:25:47.873Z,100348.78
2022-11-29T02:28:30.159Z,100343.63
2022-11-29T02:31:20.357Z,100344.97
2022-11-29T02:34:04.470Z,100351.41
2022-11-29T02:36:39.839Z,100363.84
2022-11-29T02:39:19.325Z,100370.59
2022-11-29T02:42:37.363Z,100375.13
2022-11-29T02:45:11.726Z,100371.97
2022-11-29T02:48:11.293Z,100375.16
2022-11-29T02:50:55.309Z,100367.38
2022-11-29T02:53:35.177Z,100380.13
2022-11-29T02:56:11.084Z,100374.94
2022-11-29T02:58:52.460Z,100364.06
2022-11-29T03:01:35.806Z,100369.16
2022-11-29T03:04:19.358Z,100372.25
2022-11-29T03:07:03.948Z,100375.56
2022-11-29T03:09:46.903Z,100384.28
2022-11-29T03:12:43.642Z,100387.66
2022-11-29T03:15:36.370Z,100394.22
2022-11-29T03:18:38.024Z,100403.75
2022-11-29T03:21:20.448Z,100405.19
2022-11-29T03:23:57.754Z,100406.41
2022-11-29T03:26:41.644Z,100429.00
2022-11-29T03:29:23.278Z,100427.69
2022-11-29T03:32:11.247Z,100436.00
2022-11-29T03:34:59.859Z,100447.19
2022-11-29T03:37:39.728Z,100460.00
2022-11-29T03:40:22.357Z,100467.06
2022-11-29T03:43:06.392Z,100465.38
2022-11-29T03:46:02.891Z,100473.88
2022-11-29T03:48:47.215Z,100479.91
2022-11-29T03:51:31.237Z,100481.72
2022-11-29T03:54:15.694Z,100475.56
2022-11-29T03:56:47.441Z,100464.81
2022-11-29T03:59:48.152Z,100496.72
2022-11-29T04:02:46.285Z,100482.06
2022-11-29T04:05:22.435Z,100491.97
2022-11-29T04:08:31.936Z,100489.81
2022-11-29T04:11:18.487Z,100482.59
2022-11-29T04:14:10.782Z,100492.47
2022-11-29T04:17:15.617Z,100481.66
2022-11-29T04:20:07.620Z,100477.59
2022-11-29T04:22:45.555Z,100469.94
2022-11-29T04:25:34.435Z,100463.25
2022-11-29T04:28:29.419Z,100472.84
2022-11-29T04:31:31.464Z,100462.56
2022-11-29T04:34:22.187Z,100470.66
2022-11-29T04:37:04.745Z,100472.50
2022-11-29T04:40:00.101Z,100481.78
2022-11-29T04:42:54.831Z,100473.06
2022-11-29T04:46:04.399Z,100463.47
2022-11-29T04:49:03.880Z,100459.03
2022-11-29T04:51:51.782Z,100462.00
2022-11-29T04:54:47.707Z,100478.41
2022-11-29T04:57:47.870Z,100485.28
2022-11-29T05:00:31.648Z,100483.09
2022-11-29T05:03:33.802Z,100490.75
2022-11-29T05:06:12.477Z,100495.13
2022-11-29T05:09:18.901Z,100486.38
2022-11-29T05:12:35.747Z,100484.50
2022-11-29T05:15:15.163Z,100490.00
2022-11-29T05:18:35.289Z,100496.59
2022-11-29T05:21:45.720Z,100490.91
2022-11-29T05:24:29.731Z,100489.66
2022-11-29T05:27:19.409Z,100483.34
2022-11-29T05:30:21.799Z,100482.06
2022-11-29T05:33:11.335Z,100477.50
2022-11-29T05:36:19.877Z,100490.75
2022-11-29T05:39:42.889Z,100492.50
2022-11-29T05:42:39.043Z,100503.91
2022-11-29T05:45:36.001Z,100515.81
2022-11-29T05:48:46.469Z,100514.13
2022-11-29T05:51:34.368Z,100523.50
2022-11-29T05:54:49.964Z,100538.56
2022-11-29T05:57:35.954Z,100541.44
2022-11-29T06:00:12.485Z,100542.19
2022-11-29T06:03:07.424Z,100560.47
2022-11-29T06:06:06.156Z,100554.81
2022-11-29T06:09:07.976Z,100567.13
2022-11-29T06:11:50.171Z,100554.09
2022-11-29T06:14:47.618Z,100550.28
2022-11-29T06:17:43.558Z,100548.91
2022-11-29T06:20:40.039Z,100556.88
2022-11-29T06:23:43.536Z,100559.53
2022-11-29T06:26:47.426Z,100557.19
2022-11-29T06:29:36.228Z,100554.72
2022-11-29T06:32:35.354Z,100565.53
2022-11-29T06:35:18.914Z,100572.72
2022-11-29T06:38:03.867Z,100572.00
2022-11-29T06:40:35.813Z,100575.41
2022-11-29T06:43:09.912Z,100580.69
2022-11-29T06:45:46.631Z,100563.56
2022-11-29T06:48:32.112Z,100567.69
2022-11-29T06:51:36.235Z,100569.44
2022-11-29T06:54:36.020Z,100580.16
2022-11-29T06:57:34.642Z,100577.44
2022-11-29T07:00:19.930Z,100589.03
2022-11-29T07:03:00.810Z,100583.53
2022-11-29T07:05:38.662Z,100581.53
2022-11-29T07:08:20.326Z,100578.16
2022-11-29T07:11:06.053Z,100578.31
2022-11-29T07:13:38.677Z,100586.69
2022-11-29T07:16:34.848Z,100586.81
2022-11-29T07:19:20.098Z,100591.16
2022-11-29T07:22:44.063Z,100580.41
2022-11-29T07:25:38.999Z,100577.31
2022-11-29T07:28:35.085Z,100587.50
2022-11-29T07:31:04.567Z,100591.59
2022-11-29T07:33:43.378Z,100598.06
2022-11-29T07:36:47.908Z,100598.97
2022-11-29T07:39:40.013Z,100603.97
2022-11-29T07:42:34.864Z,100591.84
2022-11-29T07:45:42.128Z,100600.91
2022-11-29T07:48:23.983Z,100593.81
2022-11-29T07:51:02.600Z,100602.22
2022-11-29T07:53:42.024Z,100608.25
2022-11-29T07:56:18.880Z,100602.50
2022-11-29T07:58:50.218Z,100606.50
2022-11-29T08:01:20.087Z,100595.88
2022-11-29T08:04:00.043Z,100591.94
2022-11-29T08:06:39.059Z,100593.47
2022-11-29T08:09:22.435Z,100590.72
2022-11-29T08:12:17.458Z,100584.25
2022-11-29T08:14:50.977Z,100576.56
2022-11-29T08:17:21.554Z,100580.66
2022-11-29T08:19:51.441Z,100581.88
2022-11-29T08:22:20.145Z,100580.09
2022-11-29T08:25:00.125Z,100588.59
2022-11-29T08:27:36.276Z,100593.94
2022-11-29T08:30:10.849Z,100588.56
2022-11-29T08:32:40.840Z,100583.66
2022-11-29T08:35:12.580Z,100576.56
2022-11-29T08:37:44.736Z,100578.69
2022-11-29T08:40:18.830Z,100589.03
2022-11-29T08:42:51.790Z,100584.69
2022-11-29T08:45:26.836Z,100589.88
2022-11-29T08:48:06.887Z,100596.06
2022-11-29T08:50:39.783Z,100597.34
2022-11-29T08:53:31.951Z,100606.81
2022-11-29T08:56:23.509Z,100601.00
2022-11-29T08:59:07.356Z,100609.09
2022-11-29T09:01:40.143Z,100610.47
2022-11-29T09:04:20.302Z,100609.06
2022-11-29T09:06:52.751Z,100619.13
2022-11-29T09:09:44.584Z,100627.94
2022-11-29T09:12:38.893Z,100627.09
2022-11-29T09:15:19.102Z,100634.06
2022-11-29T09:18:12.122Z,100625.97
2022-11-29T09:20:47.097Z,100634.78
2022-11-29T09:23:22.726Z,100649.88
2022-11-29T09:25:52.630Z,100647.91
2022-11-29T09:28:32.409Z,100644.81
2022-11-29T09:31:18.311Z,100649.69
2022-11-29T09:33:51.355Z,100657.38
2022-11-29T09:36:28.561Z,100671.16
2022-11-29T09:39:05.876Z,100677.16
2022-11-29T09:41:47.080Z,100683.75
2022-11-29T09:44:40.681Z,100691.34
2022-11-29T09:47:39.695Z,100714.84
2022-11-29T09:50:44.188Z,100707.75
2022-11-29T09:54:04.683Z,100714.47
2022-11-29T09:57:10.567Z,100703.41
2022-11-29T09:59:49.837Z,100714.59
2022-11-29T10:02:40.318Z,100714.59
2022-11-29T10:05:16.199Z,100717.94
2022-11-29T10:08:03.715Z,100718.25
2022-11-29T10:11:24.740Z,100724.06
2022-11-29T10:14:22.764Z,100724.53
2022-11-29T10:17:35.014Z,100736.66
2022-11-29T10:20:19.689Z,100730.94
2022-11-29T10:23:04.245Z,100725.03
2022-11-29T10:26:03.097Z,100723.25
2022-11-29T10:28:38.973Z,100733.31
2022-11-29T10:31:57.468Z,100729.88
2022-11-29T10:35:03.692Z,100722.22
2022-11-29T10:37:39.649Z,100738.91
2022-11-29T10:40:39.861Z,100750.75
2022-11-29T10:43:11.360Z,100746.13
2022-11-29T10:46:00.045Z,100754.78
2022-11-29T10:48:38.229Z,100762.75
2022-11-29T10:51:19.044Z,100773.38
2022-11-29T10:54:01.591Z,100772.69
2022-11-29T10:56:39.260Z,100778.50
2022-11-29T10:59:37.138Z,100767.03
2022-11-29T11:02:22.157Z,100780.03
2022-11-29T11:04:54.361Z,100792.34
2022-11-29T11:07:40.646Z,100797.09
2022-11-29T11:10:38.704Z,100798.38
2022-11-29T11:13:23.899Z,100790.09
2022-11-29T11:16:44.672Z,100800.72
2022-11-29T11:19:44.218Z,100808.44
2022-11-29T11:22:34.639Z,100811.91
2022-11-29T11:25:42.627Z,100814.44
2022-11-29T11:28:24.086Z,100819.06
2022-11-29T11:31:11.697Z,100822.56
2022-11-29T11:33:53.723Z,100830.69
2022-11-29T11:36:42.045Z,100835.72
2022-11-29T11:39:23.383Z,100837.94
2022-11-29T11:42:15.068Z,100823.19
2022-11-29T11:44:55.422Z,100834.50
2022-11-29T11:47:38.735Z,100832.16
2022-11-29T11:50:19.200Z,100837.94
2022-11-29T11:53:14.773Z,100847.59
2022-11-29T11:56:18.255Z,100868.38
2022-11-29T11:59:01.840Z,100867.00
2022-11-29T12:01:47.129Z,100863.59
2022-11-29T12:04:38.472Z,100870.13
2022-11-29T12:08:06.765Z,100880.88
2022-11-29T12:10:42.840Z,100889.03
2022-11-29T12:13:36.216Z,100884.09
2022-11-29T12:16:23.756Z,100874.75
2022-11-29T12:19:35.584Z,100868.91
2022-11-29T12:22:22.371Z,100879.03
2022-11-29T12:25:06.516Z,100869.59
2022-11-29T12:27:40.041Z,100876.72
2022-11-29T12:30:18.244Z,100879.38
2022-11-29T12:33:22.850Z,100880.53
2022-11-29T12:36:48.045Z,100892.72
2022-11-29T12:39:36.034Z,100883.09
2022-11-29T12:42:47.298Z,100898.50
2022-11-29T12:45:44.991Z,100907.06
2022-11-29T12:48:39.652Z,100917.84
2022-11-29T12:51:46.177Z,100913.38
2022-11-29T12:54:45.492Z,100923.53
2022-11-29T12:57:52.516Z,100929.28
2022-11-29T13:01:02.510Z,100937.19
2022-11-29T13:04:18.223Z,100959.28
2022-11-29T13:07:12.012Z,100963.34
2022-11-29T13:10:19.180Z,100971.03
2022-11-29T13:13:24.253Z,100956.38
2022-11-29T13:20:38.548Z,100970.91
2022-11-29T13:24:07.446Z,100976.19
2022-11-29T13:26:49.026Z,100984.19
2022-11-29T13:29:47.708Z,100987.88
2022-11-29T13:32:46.340Z,100992.19
2022-11-29T13:36:08.265Z,100993.69
2022-11-29T13:39:19.082Z,100984.13
2022-11-29T13:42:19.726Z,100992.66
2022-11-29T13:45:10.528Z,101002.91
2022-11-29T13:48:36.805Z,101022.06
2022-11-29T13:51:37.882Z,101026.50
2022-11-29T13:54:36.623Z,101024.72
2022-11-29T13:57:15.980Z,101022.84
2022-11-29T13:59:51.996Z,101019.47
2022-11-29T14:02:48.148Z,101025.41
2022-11-29T14:05:30.851Z,101024.41
2022-11-29T14:09:02.113Z,101026.50
2022-11-29T14:11:35.691Z,101029.19
2022-11-29T14:14:08.225Z,101033.53
2022-11-29T14:16:45.803Z,101036.91
2022-11-29T14:19:33.809Z,101033.88
2022-11-29T14:22:03.503Z,101037.31
2022-11-29T14:24:39.109Z,101031.09
2022-11-29T14:27:13.322Z,101040.78
2022-11-29T14:29:59.554Z,101036.25
2022-11-29T14:32:58.435Z,101038.16
2022-11-29T14:35:48.281Z,101036.94
2022-11-29T14:38:30.939Z,101039.22
2022-11-29T14:41:23.383Z,101044.28
2022-11-29T14:44:05.402Z,101050.38
2022-11-29T14:46:34.967Z,101044.38
2022-11-29T14:49:05.627Z,101045.19
2022-11-29T14:51:35.529Z,101049.53
2022-11-29T14:54:17.829Z,101054.78
2022-11-29T14:56:48.081Z,101060.75
2022-11-29T14:59:53.250Z,101058.09
2022-11-29T15:02:38.838Z,101073.34
2022-11-29T15:05:41.410Z,101077.06
2022-11-29T15:08:22.215Z,101078.44
2022-11-29T15:11:06.296Z,101070.06
2022-11-29T15:13:38.307Z,101079.63
2022-11-29T15:16:23.553Z,101075.13
2022-11-29T15:19:31.748Z,101074.84
2022-11-29T15:22:15.921Z,101077.84
2022-11-29T15:25:24.142Z,101069.34
2022-11-29T15:28:03.662Z,101058.63
2022-11-29T15:30:37.841Z,101053.94
2022-11-29T15:33:23.591Z,101061.97
2022-11-29T15:36:07.610Z,101058.78
2022-11-29T15:38:48.012Z,101060.28
2022-11-29T15:41:35.626Z,101053.88
2022-11-29T15:44:07.885Z,101049.75
2022-11-29T15:46:51.490Z,101037.78
2022-11-29T15:49:34.451Z,101040.78
2022-11-29T15:52:20.204Z,101037.34
2022-11-29T15:54:59.000Z,101048.19
2022-11-29T15:57:44.321Z,101042.00
2022-11-29T16:00:21.656Z,101054.22
2022-11-29T16:03:03.895Z,101047.09
2022-11-29T16:05:40.424Z,101036.41
2022-11-29T16:08:20.755Z,101032.91
2022-11-29T16:10:55.556Z,101033.03
2022-11-29T16:13:42.139Z,101029.34
2022-11-29T16:17:06.339Z,101026.16
2022-11-29T16:19:39.165Z,101038.00
2022-11-29T16:22:15.370Z,101037.72
2022-11-29T16:25:02.096Z,101037.31
2022-11-29T16:27:38.034Z,101028.88
2022-11-29T16:30:08.157Z,101017.38
2022-11-29T16:32:44.691Z,101012.97
2022-11-29T16:35:21.781Z,101012.66
2022-11-29T16:37:51.802Z,100993.75
2022-11-29T16:40:32.445Z,100995.16
2022-11-29T16:43:04.539Z,100990.41
2022-11-29T16:45:36.002Z,100995.53
2022-11-29T16:48:32.148Z,100986.66
2022-11-29T16:51:30.168Z,100978.25
2022-11-29T16:54:28.120Z,100982.03
2022-11-29T16:57:04.358Z,100973.22
2022-11-29T16:59:35.667Z,100970.66
2022-11-29T17:02:08.376Z,100967.53
2022-11-29T17:04:39.757Z,100959.84
2022-11-29T17:07:15.987Z,100958.06
2022-11-29T17:09:50.348Z,100964.66
2022-11-29T17:12:20.226Z,100952.97
2022-11-29T17:14:50.266Z,100953.78
2022-11-29T17:17:20.022Z,100944.94
2022-11-29T17:19:49.874Z,100942.06
2022-11-29T17:22:19.314Z,100936.78
2022-11-29T17:24:48.746Z,100933.25
2022-11-29T17:27:19.064Z,100923.00
2022-11-29T17:29:48.237Z,100910.78
2022-11-29T17:32:21.976Z,100907.03
2022-11-29T17:34:56.146Z,100901.31
2022-11-29T17:37:29.715Z,100904.25
2022-11-29T17:40:00.798Z,100897.84
2022-11-29T17:42:31.209Z,100884.25
2022-11-29T17:45:00.595Z,100884.72
2022-11-29T17:47:30.918Z,100880.66
2022-11-29T17:50:03.895Z,100884.38
2022-11-29T17:52:34.611Z,100880.53
2022-11-29T17:55:07.782Z,100878.53
2022-11-29T17:57:42.921Z,100890.56
2022-11-29T18:03:14.969Z,100882.13
2022-11-29T18:16:42.551Z,100859.03
2022-11-29T18:19:24.574Z,100848.25
2022-11-29T18:22:11.208Z,100842.03
2022-11-29T18:49:19.394Z,100834.06
2022-11-29T18:58:23.654Z,100829.09
2022-11-29T19:01:05.238Z,100814.78
2022-11-29T19:03:42.756Z,100811.97
2022-11-29T19:06:16.601Z,100799.47
2022-11-29T19:08:54.645Z,100794.59
2022-11-29T19:29:21.274Z,100790.25
2022-11-29T19:37:52.457Z,100810.22
2022-11-29T19:51:32.272Z,100798.53
2022-11-29T19:56:28.570Z,100795.69
2022-11-29T20:04:11.931Z,100787.31
2022-11-29T20:06:52.547Z,100781.03
2022-11-29T20:10:36.748Z,100792.72
2022-11-29T20:13:37.104Z,100794.66
2022-11-29T20:16:58.529Z,100798.88
2022-11-29T20:20:09.961Z,100790.25
2022-11-29T20:22:43.540Z,100792.13
2022-11-29T20:25:18.903Z,100801.16
2022-11-29T20:27:48.911Z,100808.75
2022-11-29T20:30:51.609Z,100803.41
2022-11-29T20:36:47.326Z,100784.25
2022-11-29T20:39:30.277Z,100791.31
2022-11-29T20:42:36.294Z,100786.50
2022-11-29T20:45:11.021Z,100791.19
2022-11-29T20:48:00.531Z,100787.16
2022-11-29T20:50:39.475Z,100782.09
2022-11-29T20:53:32.653Z,100775.06
2022-11-29T20:56:03.745Z,100776.88
2022-11-29T20:58:32.747Z,100783.19
2022-11-29T21:01:08.522Z,100770.22
2022-11-29T21:03:40.749Z,100768.84
2022-11-29T21:06:14.831Z,100774.22
2022-11-29T21:08:52.266Z,100784.25
2022-11-29T21:11:23.522Z,100777.63
2022-11-29T21:13:52.502Z,100768.66
2022-11-29T21:16:31.736Z,100761.22
2022-11-29T21:19:03.478Z,100754.66
2022-11-29T21:21:46.652Z,100744.03
2022-11-29T21:24:38.046Z,100749.50
2022-11-29T21:27:15.914Z,100732.69
2022-11-29T21:29:51.154Z,100733.06
2022-11-29T21:32:24.725Z,100730.13
2022-11-29T21:35:01.601Z,100734.16
2022-11-29T21:37:34.640Z,100743.59
2022-11-29T21:40:06.212Z,100735.31
2022-11-29T21:42:37.186Z,100742.75
2022-11-29T21:45:14.834Z,100743.97
2022-11-29T21:47:47.194Z,100741.03
2022-11-29T21:50:18.401Z,100745.09
2022-11-29T21:52:52.114Z,100738.25
2022-11-29T21:55:31.566Z,100750.56
2022-11-29T21:58:03.229Z,100764.41
2022-11-29T22:00:37.272Z,100763.28
2022-11-29T22:03:09.950Z,100758.38
2022-11-29T22:05:40.320Z,100766.59
2022-11-29T22:08:10.513Z,100771.31
2022-11-29T22:10:41.840Z,100769.09
2022-11-29T22:13:12.233Z,100770.50
2022-11-29T22:15:42.853Z,100761.22
2022-11-29T22:18:12.534Z,100780.81
2022-11-29T22:20:44.308Z,100791.09
2022-11-29T22:23:14.046Z,100789.44
2022-11-29T22:25:43.159Z,100800.63
2022-11-29T22:28:11.966Z,100805.25
2022-11-29T22:30:41.953Z,100800.47
2022-11-29T22:33:13.428Z,100795.38
2022-11-29T22:35:45.963Z,100810.19
2022-11-29T22:38:14.679Z,100812.09
2022-11-29T22:40:44.198Z,100803.47
2022-11-29T22:43:14.321Z,100798.69
2022-11-29T22:45:44.266Z,100802.31
2022-11-29T22:48:16.232Z,100805.44
2022-11-29T22:50:47.226Z,100807.13
2022-11-29T22:53:16.256Z,100812.81
2022-11-29T22:55:47.858Z,100811.47
2022-11-29T22:58:18.120Z,100828.06
2022-11-29T23:00:47.549Z,100825.56
2022-11-29T23:03:18.659Z,100823.75
2022-11-29T23:05:52.742Z,100832.66
2022-11-29T23:08:22.338Z,100825.59
2022-11-29T23:11:02.703Z,100820.84
2022-11-29T23:13:35.785Z,100799.75
2022-11-29T23:16:08.643Z,100796.13
2022-11-29T23:18:43.981Z,100792.78
2022-11-29T23:21:23.443Z,100793.69
2022-11-29T23:24:02.754Z,100802.41
2022-11-29T23:26:41.915Z,100803.75
2022-11-29T23:29:16.156Z,100796.59
2022-11-29T23:31:47.871Z,100798.78
2022-11-29T23:34:21.382Z,100815.84
2022-11-29T23:36:53.308Z,100824.38
2022-11-29T23:39:24.642Z,100833.09
2022-11-29T23:42:07.002Z,100834.44
2022-11-29T23:44:38.360Z,100834.59
2022-11-29T23:47:07.774Z,100836.78
2022-11-29T23:49:36.375Z,100823.09
2022-11-29T23:52:08.901Z,100813.38
2022-11-29T23:54:40.382Z,100827.78
2022-11-29T23:57:10.411Z,100815.88
2022-11-29T23:59:46.513Z,100816.69
